createdAt,value
2023-02-21T00:01:47.560Z,2.97
2023-02-21T00:04:32.772Z,2.83
2023-02-21T00:07:19.351Z,2.72
2023-02-21T00:10:04.649Z,2.47
2023-02-21T00:12:49.985Z,2.40
2023-02-21T00:15:35.376Z,2.60
2023-02-21T00:18:20.787Z,2.30
2023-02-21T00:21:06.202Z,2.17
2023-02-21T00:23:54.125Z,2.22
2023-02-21T00:26:39.934Z,2.22
2023-02-21T00:29:25.236Z,1.70
2023-02-21T00:32:10.563Z,2.03
2023-02-21T00:34:55.934Z,2.42
2023-02-21T00:37:41.258Z,2.47
2023-02-21T00:40:30.245Z,2.03
2023-02-21T00:43:15.354Z,2.30
2023-02-21T00:46:00.794Z,2.07
2023-02-21T00:48:46.013Z,2.17
2023-02-21T00:51:31.239Z,2.30
2023-02-21T00:54:16.610Z,2.40
2023-02-21T00:57:03.109Z,2.10
2023-02-21T00:59:48.408Z,2.33
2023-02-21T01:02:33.680Z,2.20
2023-02-21T01:05:19.018Z,2.00
2023-02-21T01:08:04.118Z,2.20
2023-02-21T01:10:49.396Z,1.88
2023-02-21T01:13:35.578Z,1.90
2023-02-21T01:16:20.973Z,1.80
2023-02-21T01:19:07.510Z,1.90
2023-02-21T01:21:52.625Z,2.30
2023-02-21T01:24:37.633Z,1.90
2023-02-21T01:27:23.606Z,1.90
2023-02-21T01:30:10.369Z,1.80
2023-02-21T01:32:56.016Z,2.30
2023-02-21T01:35:41.133Z,1.92
2023-02-21T01:38:26.505Z,2.00
2023-02-21T01:41:11.880Z,2.30
2023-02-21T01:43:57.205Z,2.30
2023-02-21T01:46:43.838Z,2.13
2023-02-21T01:49:34.106Z,2.05
2023-02-21T01:52:21.456Z,1.95
2023-02-21T01:55:10.473Z,2.10
2023-02-21T01:57:57.602Z,1.95
2023-02-21T02:00:43.704Z,2.20
2023-02-21T02:03:33.653Z,2.30
2023-02-21T02:06:21.983Z,2.50
2023-02-21T02:09:07.474Z,2.23
2023-02-21T02:12:09.472Z,2.20
2023-02-21T02:14:52.507Z,2.40
2023-02-21T02:17:32.516Z,1.90
2023-02-21T02:20:41.544Z,2.22
2023-02-21T02:23:40.446Z,2.13
2023-02-21T02:26:32.359Z,2.03
2023-02-21T02:29:18.021Z,2.05
2023-02-21T02:32:10.969Z,2.00
2023-02-21T02:34:53.627Z,2.00
2023-02-21T02:37:27.209Z,2.10
2023-02-21T02:40:03.668Z,2.10
2023-02-21T02:42:42.869Z,2.42
2023-02-21T02:45:16.193Z,2.30
2023-02-21T02:47:47.664Z,2.45
2023-02-21T02:50:18.061Z,2.47
2023-02-21T02:52:53.565Z,2.80
2023-02-21T02:55:32.885Z,3.38
2023-02-21T02:58:02.358Z,2.97
2023-02-21T03:00:31.549Z,3.30
2023-02-21T03:03:21.764Z,3.60
2023-02-21T03:06:01.725Z,3.70
2023-02-21T03:08:40.434Z,4.22
2023-02-21T03:11:15.993Z,4.60
2023-02-21T03:13:48.339Z,5.38
2023-02-21T03:16:20.754Z,4.00
2023-02-21T03:18:51.371Z,4.60
2023-02-21T03:21:24.084Z,3.83
2023-02-21T03:23:54.233Z,3.80
2023-02-21T03:26:21.975Z,3.10
2023-02-21T03:28:56.329Z,3.30
2023-02-21T03:31:29.937Z,3.35
2023-02-21T03:33:58.182Z,3.83
2023-02-21T03:36:28.089Z,3.38
2023-02-21T03:38:56.550Z,3.72
2023-02-21T03:41:25.328Z,3.40
2023-02-21T03:43:53.318Z,3.63
2023-02-21T03:46:21.142Z,3.03
2023-02-21T03:48:49.075Z,3.13
2023-02-21T03:51:21.285Z,3.08
2023-02-21T03:53:50.220Z,3.03
2023-02-21T03:56:21.743Z,2.70
2023-02-21T03:59:11.146Z,3.53
2023-02-21T04:01:38.807Z,2.83
2023-02-21T04:04:06.551Z,3.28
2023-02-21T04:06:34.980Z,2.70
2023-02-21T04:09:04.723Z,2.83
2023-02-21T04:11:32.797Z,3.65
2023-02-21T04:14:00.571Z,3.22
2023-02-21T04:16:28.133Z,3.35
2023-02-21T04:18:57.163Z,3.20
2023-02-21T04:21:25.999Z,3.25
2023-02-21T04:23:56.731Z,3.22
2023-02-21T04:26:29.920Z,3.47
2023-02-21T04:28:57.809Z,3.63
2023-02-21T04:31:25.460Z,3.87
2023-02-21T04:34:05.877Z,3.92
2023-02-21T04:36:38.614Z,3.55
2023-02-21T04:39:07.162Z,3.88
2023-02-21T04:41:36.500Z,4.10
2023-02-21T04:44:04.254Z,3.40
2023-02-21T04:46:34.003Z,3.80
2023-02-21T04:49:02.532Z,3.30
2023-02-21T04:51:30.094Z,3.20
2023-02-21T04:53:58.031Z,3.17
2023-02-21T04:56:27.380Z,3.07
2023-02-21T04:58:57.514Z,3.75
2023-02-21T05:01:28.834Z,3.65
2023-02-21T05:03:56.482Z,3.10
2023-02-21T05:06:25.758Z,2.95
2023-02-21T05:08:53.533Z,2.97
2023-02-21T05:11:22.352Z,2.83
2023-02-21T05:13:49.866Z,3.03
2023-02-21T05:16:19.910Z,3.30
2023-02-21T05:18:49.259Z,2.70
2023-02-21T05:21:18.007Z,2.97
2023-02-21T05:23:55.472Z,3.30
2023-02-21T05:26:25.416Z,3.20
2023-02-21T05:28:53.521Z,3.70
2023-02-21T05:31:22.493Z,3.05
2023-02-21T05:33:50.044Z,2.87
2023-02-21T05:36:18.231Z,2.78
2023-02-21T05:38:46.434Z,3.40
2023-02-21T05:41:14.582Z,3.72
2023-02-21T05:43:44.637Z,3.38
2023-02-21T05:46:25.845Z,3.50
2023-02-21T05:48:55.953Z,3.17
2023-02-21T05:51:24.131Z,2.45
2023-02-21T05:53:52.593Z,2.95
2023-02-21T05:56:22.047Z,2.70
2023-02-21T05:58:50.100Z,3.53
2023-02-21T06:01:18.018Z,2.75
2023-02-21T06:03:47.217Z,3.67
2023-02-21T06:06:16.178Z,2.80
2023-02-21T06:08:45.209Z,2.80
2023-02-21T06:11:13.623Z,2.90
2023-02-21T06:13:42.498Z,3.28
2023-02-21T06:16:10.128Z,3.45
2023-02-21T06:18:37.726Z,3.08
2023-02-21T06:21:06.898Z,3.95
2023-02-21T06:23:34.487Z,3.07
2023-02-21T06:26:01.968Z,3.00
2023-02-21T06:28:30.366Z,2.55
2023-02-21T06:30:58.197Z,2.97
2023-02-21T06:33:26.285Z,2.85
2023-02-21T06:35:53.877Z,3.20
2023-02-21T06:38:23.026Z,3.33
2023-02-21T06:40:50.549Z,3.33
2023-02-21T06:43:18.069Z,4.00
2023-02-21T06:45:45.606Z,2.97
2023-02-21T06:48:16.044Z,3.23
2023-02-21T06:50:43.649Z,3.10
2023-02-21T06:53:11.216Z,2.60
2023-02-21T06:55:40.093Z,3.20
2023-02-21T06:58:07.631Z,3.15
2023-02-21T07:00:35.315Z,2.87
2023-02-21T07:03:02.997Z,3.03
2023-02-21T07:05:34.498Z,2.85
2023-02-21T07:08:02.218Z,3.53
2023-02-21T07:10:30.032Z,3.28
2023-02-21T07:12:58.921Z,3.27
2023-02-21T07:15:26.991Z,2.70
2023-02-21T07:17:54.576Z,3.15
2023-02-21T07:20:22.120Z,2.63
2023-02-21T07:22:49.684Z,2.70
2023-02-21T07:25:19.872Z,3.03
2023-02-21T07:27:48.317Z,3.40
2023-02-21T07:30:17.764Z,3.20
2023-02-21T07:32:48.613Z,2.70
2023-02-21T07:35:16.133Z,2.60
2023-02-21T07:37:43.683Z,2.70
2023-02-21T07:40:11.731Z,2.70
2023-02-21T07:42:43.873Z,3.28
2023-02-21T07:45:11.483Z,2.72
2023-02-21T07:47:40.345Z,2.92
2023-02-21T07:50:08.606Z,2.77
2023-02-21T07:52:36.122Z,2.92
2023-02-21T07:55:03.656Z,2.50
2023-02-21T07:57:31.204Z,3.05
2023-02-21T07:59:58.772Z,2.80
2023-02-21T08:02:26.310Z,2.73
2023-02-21T08:04:55.207Z,2.70
2023-02-21T08:07:22.988Z,2.63
2023-02-21T08:09:51.380Z,2.85
2023-02-21T08:12:18.909Z,3.90
2023-02-21T08:14:46.526Z,2.67
2023-02-21T08:17:14.530Z,3.95
2023-02-21T08:19:42.054Z,3.33
2023-02-21T08:22:10.932Z,3.03
2023-02-21T08:24:38.481Z,2.78
2023-02-21T08:27:06.013Z,3.80
2023-02-21T08:29:33.598Z,2.90
2023-02-21T08:32:01.144Z,3.13
2023-02-21T08:34:30.092Z,3.78
2023-02-21T08:36:57.626Z,2.80
2023-02-21T08:39:29.893Z,2.70
2023-02-21T08:41:57.394Z,2.63
2023-02-21T08:44:24.978Z,3.03
2023-02-21T08:46:52.591Z,3.15
2023-02-21T08:49:20.189Z,3.13
2023-02-21T08:51:48.135Z,3.23
2023-02-21T08:54:15.883Z,2.80
2023-02-21T08:56:44.709Z,3.38
2023-02-21T08:59:12.342Z,2.70
2023-02-21T09:01:39.955Z,2.60
2023-02-21T09:04:07.774Z,2.77
2023-02-21T09:06:35.313Z,2.63
2023-02-21T09:09:02.834Z,2.97
2023-02-21T09:11:30.390Z,2.95
2023-02-21T09:13:59.288Z,3.35
2023-02-21T09:16:26.916Z,2.67
2023-02-21T09:18:56.817Z,3.33
2023-02-21T09:21:24.330Z,2.70
2023-02-21T09:23:54.814Z,2.80
2023-02-21T09:26:23.989Z,2.90
2023-02-21T09:28:52.021Z,2.43
2023-02-21T09:31:21.617Z,2.40
2023-02-21T09:33:49.340Z,2.50
2023-02-21T09:36:23.903Z,3.63
2023-02-21T09:38:51.442Z,2.63
2023-02-21T09:41:20.434Z,2.57
2023-02-21T09:43:50.540Z,2.70
2023-02-21T09:46:26.291Z,2.85
2023-02-21T09:48:54.885Z,3.40
2023-02-21T09:51:22.533Z,3.08
2023-02-21T09:53:50.428Z,2.53
2023-02-21T09:56:26.336Z,2.95
2023-02-21T09:58:53.886Z,2.83
2023-02-21T10:01:33.651Z,2.70
2023-02-21T10:04:14.902Z,2.30
2023-02-21T10:06:51.522Z,3.00
2023-02-21T10:09:28.275Z,2.45
2023-02-21T10:12:04.660Z,3.47
2023-02-21T10:14:44.310Z,2.83
2023-02-21T10:17:19.991Z,2.92
2023-02-21T10:19:52.518Z,3.23
2023-02-21T10:22:22.361Z,2.92
2023-02-21T10:24:50.857Z,3.00
2023-02-21T10:27:21.214Z,2.58
2023-02-21T10:29:55.376Z,3.38
2023-02-21T10:32:25.750Z,3.20
2023-02-21T10:34:54.750Z,3.45
2023-02-21T10:37:33.638Z,2.42
2023-02-21T10:40:09.141Z,3.03
2023-02-21T10:42:40.512Z,2.97
2023-02-21T10:45:10.049Z,2.87
2023-02-21T10:47:50.685Z,2.97
2023-02-21T10:50:38.249Z,2.60
2023-02-21T10:53:05.847Z,3.45
2023-02-21T10:55:33.747Z,2.88
2023-02-21T10:58:09.164Z,2.60
2023-02-21T11:00:39.253Z,2.47
2023-02-21T11:03:16.904Z,3.17
2023-02-21T11:05:50.264Z,2.50
2023-02-21T11:08:36.636Z,2.60
2023-02-21T11:11:04.688Z,2.23
2023-02-21T11:13:33.930Z,2.85
2023-02-21T11:16:12.154Z,2.90
2023-02-21T11:18:41.125Z,2.53
2023-02-21T11:21:14.582Z,2.50
2023-02-21T11:23:48.489Z,2.30
2023-02-21T11:26:16.924Z,2.60
2023-02-21T11:28:48.362Z,2.25
2023-02-21T11:31:19.228Z,2.80
2023-02-21T11:33:56.321Z,2.20
2023-02-21T11:36:29.445Z,2.03
2023-02-21T11:39:04.314Z,2.60
2023-02-21T11:41:37.951Z,2.00
2023-02-21T11:44:25.042Z,2.60
2023-02-21T11:47:01.700Z,2.10
2023-02-21T11:49:52.115Z,2.20
2023-02-21T11:52:24.926Z,2.22
2023-02-21T11:54:52.590Z,2.03
2023-02-21T11:57:26.487Z,2.30
2023-02-21T12:00:01.040Z,1.92
2023-02-21T12:02:52.470Z,1.97
2023-02-21T12:05:33.759Z,2.40
2023-02-21T12:08:19.491Z,2.00
2023-02-21T12:10:52.874Z,2.47
2023-02-21T12:13:32.449Z,2.13
2023-02-21T12:16:11.544Z,2.60
2023-02-21T12:18:52.365Z,2.40
2023-02-21T12:21:40.118Z,2.40
2023-02-21T12:24:20.177Z,2.78
2023-02-21T12:26:52.816Z,2.30
2023-02-21T12:29:34.810Z,2.20
2023-02-21T12:32:27.267Z,2.50
2023-02-21T12:35:15.454Z,3.40
2023-02-21T12:37:52.636Z,2.50
2023-02-21T12:40:26.779Z,2.63
2023-02-21T12:43:06.178Z,2.73
2023-02-21T12:45:47.511Z,3.55
2023-02-21T12:48:25.084Z,3.08
2023-02-21T12:50:57.627Z,2.45
2023-02-21T12:53:32.160Z,2.40
2023-02-21T12:56:06.782Z,2.90
2023-02-21T12:58:39.130Z,3.03
2023-02-21T13:01:11.905Z,3.05
2023-02-21T13:03:49.875Z,2.90
2023-02-21T13:06:21.724Z,2.67
2023-02-21T13:09:12.264Z,2.53
2023-02-21T13:11:44.723Z,3.00
2023-02-21T13:14:15.514Z,2.92
2023-02-21T13:16:43.214Z,2.60
2023-02-21T13:19:14.652Z,2.65
2023-02-21T13:21:55.799Z,3.03
2023-02-21T13:24:34.529Z,2.65
2023-02-21T13:27:33.070Z,2.08
2023-02-21T13:30:04.990Z,2.50
2023-02-21T13:32:39.202Z,3.03
2023-02-21T13:35:09.313Z,2.67
2023-02-21T13:37:44.676Z,2.85
2023-02-21T13:40:23.699Z,2.85
2023-02-21T13:43:03.443Z,2.47
2023-02-21T13:45:31.840Z,3.22
2023-02-21T13:48:24.507Z,2.60
2023-02-21T13:50:53.297Z,2.67
2023-02-21T13:53:22.762Z,2.63
2023-02-21T13:56:26.668Z,2.72
2023-02-21T13:59:36.573Z,2.53
2023-02-21T14:02:30.673Z,2.33
2023-02-21T14:05:05.662Z,2.80
2023-02-21T14:08:07.676Z,2.83
2023-02-21T14:10:40.660Z,2.95
2023-02-21T14:13:21.257Z,2.67
2023-02-21T14:15:52.121Z,2.87
2023-02-21T14:18:26.160Z,2.78
2023-02-21T14:20:56.033Z,2.60
2023-02-21T14:23:26.355Z,2.63
2023-02-21T14:26:00.334Z,3.10
2023-02-21T14:28:50.963Z,3.10
2023-02-21T14:31:52.222Z,2.50
2023-02-21T14:34:28.108Z,2.80
2023-02-21T14:37:01.217Z,2.60
2023-02-21T14:39:36.676Z,3.05
2023-02-21T14:42:35.299Z,3.10
2023-02-21T14:45:28.057Z,2.65
2023-02-21T14:48:15.769Z,3.08
2023-02-21T14:51:04.657Z,3.03
2023-02-21T14:53:59.653Z,2.78
2023-02-21T14:56:52.852Z,2.93
2023-02-21T14:59:37.034Z,2.97
2023-02-21T15:02:18.109Z,2.80
2023-02-21T15:04:52.680Z,2.63
2023-02-21T15:07:29.271Z,3.08
2023-02-21T15:10:15.883Z,3.27
2023-02-21T15:12:46.886Z,2.72
2023-02-21T15:15:18.542Z,2.72
2023-02-21T15:17:55.229Z,2.40
2023-02-21T15:20:22.740Z,3.10
2023-02-21T15:22:58.846Z,2.67
2023-02-21T15:25:26.505Z,2.72
2023-02-21T15:28:00.049Z,2.40
2023-02-21T15:30:31.133Z,2.30
2023-02-21T15:33:03.394Z,2.58
2023-02-21T15:35:35.502Z,2.17
2023-02-21T15:38:11.972Z,2.78
2023-02-21T15:40:39.667Z,2.33
2023-02-21T15:43:08.868Z,2.40
2023-02-21T15:45:44.967Z,2.42
2023-02-21T15:48:12.682Z,2.20
2023-02-21T15:50:44.613Z,2.95
2023-02-21T15:53:17.579Z,2.42
2023-02-21T15:55:46.274Z,2.92
2023-02-21T15:58:18.350Z,2.75
2023-02-21T16:00:47.021Z,2.90
2023-02-21T16:03:33.393Z,2.70
2023-02-21T16:06:21.733Z,2.35
2023-02-21T16:09:01.767Z,2.72
2023-02-21T16:11:41.337Z,3.08
2023-02-21T16:14:17.310Z,2.73
2023-02-21T16:16:45.270Z,2.50
2023-02-21T16:19:13.257Z,2.80
2023-02-21T16:21:40.901Z,3.40
2023-02-21T16:24:27.876Z,3.10
2023-02-21T16:27:07.056Z,2.90
2023-02-21T16:29:34.625Z,3.30
2023-02-21T16:32:02.651Z,3.65
2023-02-21T16:34:34.062Z,3.60
2023-02-21T16:37:04.472Z,3.63
2023-02-21T16:39:33.396Z,3.90
2023-02-21T16:42:02.808Z,3.30
2023-02-21T16:44:30.613Z,3.40
2023-02-21T16:46:58.397Z,3.90
2023-02-21T16:49:26.038Z,4.28
2023-02-21T16:51:54.204Z,3.83
2023-02-21T16:54:21.817Z,3.88
2023-02-21T16:56:52.787Z,3.63
2023-02-21T16:59:22.684Z,4.53
2023-02-21T17:01:50.280Z,4.22
2023-02-21T17:04:19.323Z,4.37
2023-02-21T17:06:51.373Z,4.40
2023-02-21T17:09:21.110Z,3.80
2023-02-21T17:11:49.956Z,3.53
2023-02-21T17:14:17.567Z,3.90
2023-02-21T17:16:45.688Z,3.43
2023-02-21T17:19:14.559Z,3.58
2023-02-21T17:21:42.940Z,3.50
2023-02-21T17:24:12.375Z,4.10
2023-02-21T17:26:40.301Z,2.85
2023-02-21T17:29:09.863Z,3.43
2023-02-21T17:31:37.853Z,3.55
2023-02-21T17:34:05.514Z,4.00
2023-02-21T17:36:33.112Z,4.80
2023-02-21T17:39:00.729Z,4.25
2023-02-21T17:41:28.933Z,3.87
2023-02-21T17:43:56.711Z,4.03
2023-02-21T17:46:25.640Z,4.45
2023-02-21T17:48:53.185Z,3.72
2023-02-21T17:51:23.666Z,4.32
2023-02-21T17:53:52.033Z,3.87
2023-02-21T17:56:21.076Z,4.10
2023-02-21T17:58:49.177Z,3.88
2023-02-21T18:01:18.633Z,4.38
2023-02-21T18:03:48.850Z,4.65
2023-02-21T18:06:16.939Z,4.83
2023-02-21T18:08:46.946Z,3.55
2023-02-21T18:11:16.407Z,4.70
2023-02-21T18:13:44.603Z,4.45
2023-02-21T18:16:12.273Z,4.55
2023-02-21T18:18:39.807Z,4.00
2023-02-21T18:21:09.615Z,4.50
2023-02-21T18:23:37.826Z,4.63
2023-02-21T18:26:06.249Z,4.47
2023-02-21T18:28:33.882Z,4.47
2023-02-21T18:31:01.572Z,4.30
2023-02-21T18:33:29.183Z,4.28
2023-02-21T18:35:57.607Z,4.75
2023-02-21T18:38:28.425Z,4.40
2023-02-21T18:41:00.261Z,4.50
2023-02-21T18:43:29.815Z,4.50
2023-02-21T18:45:59.219Z,4.53
2023-02-21T18:48:27.438Z,5.00
2023-02-21T18:50:55.181Z,4.80
2023-02-21T18:53:22.963Z,4.88
2023-02-21T18:55:51.848Z,5.90
2023-02-21T18:58:19.428Z,5.40
2023-02-21T19:00:47.401Z,5.45
2023-02-21T19:03:14.885Z,6.07
2023-02-21T19:05:42.417Z,5.25
2023-02-21T19:08:09.979Z,6.03
2023-02-21T19:10:37.550Z,5.50
2023-02-21T19:13:06.409Z,5.95
2023-02-21T19:15:34.461Z,6.72
2023-02-21T19:18:02.011Z,6.15
2023-02-21T19:20:29.566Z,5.57
2023-02-21T19:22:57.799Z,5.53
2023-02-21T19:25:26.810Z,5.63
2023-02-21T19:28:00.153Z,6.18
2023-02-21T19:30:32.770Z,5.15
2023-02-21T19:33:01.657Z,5.67
2023-02-21T19:35:30.446Z,5.88
2023-02-21T19:37:58.759Z,6.07
2023-02-21T19:40:26.748Z,5.85
2023-02-21T19:42:54.310Z,6.18
2023-02-21T19:45:21.855Z,6.27
2023-02-21T19:47:50.746Z,5.90
2023-02-21T19:50:18.540Z,5.68
2023-02-21T19:52:51.978Z,6.25
2023-02-21T19:55:19.537Z,5.90
2023-02-21T19:57:47.132Z,6.03
2023-02-21T20:00:15.219Z,6.13
2023-02-21T20:02:44.343Z,6.28
2023-02-21T20:05:14.415Z,6.70
2023-02-21T20:07:42.420Z,6.95
2023-02-21T20:10:11.705Z,7.17
2023-02-21T20:12:39.571Z,7.05
2023-02-21T20:15:10.527Z,7.00
2023-02-21T20:17:39.114Z,8.07
2023-02-21T20:20:11.519Z,7.70
2023-02-21T20:22:40.668Z,7.93
2023-02-21T20:25:09.284Z,8.25
2023-02-21T20:27:36.838Z,7.47
2023-02-21T20:30:05.671Z,7.45
2023-02-21T20:32:35.039Z,8.90
2023-02-21T20:35:02.658Z,7.33
2023-02-21T20:37:32.354Z,8.63
2023-02-21T20:40:01.899Z,8.00
2023-02-21T20:42:29.469Z,8.00
2023-02-21T20:44:57.144Z,8.43
2023-02-21T20:47:25.068Z,8.67
2023-02-21T20:49:52.622Z,8.80
2023-02-21T20:52:20.127Z,8.43
2023-02-21T20:54:47.621Z,9.13
2023-02-21T20:57:16.487Z,8.90
2023-02-21T20:59:44.228Z,9.23
2023-02-21T21:02:11.765Z,9.65
2023-02-21T21:04:42.852Z,9.27
2023-02-21T21:07:13.511Z,8.45
2023-02-21T21:09:41.614Z,8.50
2023-02-21T21:12:11.472Z,8.17
2023-02-21T21:14:43.546Z,8.48
2023-02-21T21:17:13.765Z,8.43
2023-02-21T21:19:42.944Z,7.93
2023-02-21T21:22:12.898Z,7.95
2023-02-21T21:24:40.633Z,8.37
2023-02-21T21:27:10.058Z,8.15
2023-02-21T21:29:42.217Z,8.10
2023-02-21T21:32:11.224Z,8.30
2023-02-21T21:34:41.863Z,7.95
2023-02-21T21:37:09.949Z,8.33
2023-02-21T21:39:38.537Z,8.20
2023-02-21T21:42:09.360Z,8.25
2023-02-21T21:44:38.481Z,8.65
2023-02-21T21:47:07.864Z,8.32
2023-02-21T21:49:36.899Z,8.23
2023-02-21T21:52:05.654Z,8.60
2023-02-21T21:54:36.019Z,8.60
2023-02-21T21:57:05.730Z,8.25
2023-02-21T21:59:33.503Z,8.88
2023-02-21T22:02:00.997Z,8.70
2023-02-21T22:04:29.822Z,8.20
2023-02-21T22:06:57.853Z,9.20
2023-02-21T22:09:26.321Z,8.82
2023-02-21T22:11:54.449Z,8.98
2023-02-21T22:14:23.736Z,9.50
2023-02-21T22:16:53.742Z,8.98
2023-02-21T22:19:24.546Z,8.32
2023-02-21T22:21:54.699Z,8.93
2023-02-21T22:24:24.561Z,8.80
2023-02-21T22:26:53.891Z,8.00
2023-02-21T22:29:22.380Z,8.65
2023-02-21T22:31:52.133Z,7.95
2023-02-21T22:34:24.024Z,8.70
2023-02-21T22:36:54.846Z,7.63
2023-02-21T22:39:24.272Z,8.83
2023-02-21T22:41:52.108Z,8.27
2023-02-21T22:44:20.385Z,7.95
2023-02-21T22:46:57.764Z,8.60
2023-02-21T22:49:25.533Z,8.48
2023-02-21T22:51:57.042Z,8.00
2023-02-21T22:54:24.863Z,7.68
2023-02-21T22:56:53.083Z,8.25
2023-02-21T22:59:24.094Z,7.30
2023-02-21T23:01:51.684Z,7.80
2023-02-21T23:04:25.328Z,7.80
2023-02-21T23:06:56.191Z,7.68
2023-02-21T23:09:24.752Z,7.13
2023-02-21T23:11:55.472Z,7.32
2023-02-21T23:14:23.373Z,7.25
2023-02-21T23:16:54.107Z,7.93
2023-02-21T23:19:23.191Z,7.65
2023-02-21T23:21:52.647Z,8.07
2023-02-21T23:24:23.052Z,7.43
2023-02-21T23:26:51.796Z,7.93
2023-02-21T23:29:23.930Z,8.47
2023-02-21T23:31:54.063Z,8.25
2023-02-21T23:34:21.896Z,7.28
2023-02-21T23:36:49.447Z,7.97
2023-02-21T23:39:17.109Z,7.88
2023-02-21T23:41:48.546Z,8.23
2023-02-21T23:44:17.290Z,7.88
2023-02-21T23:46:45.854Z,8.75
2023-02-21T23:49:16.003Z,8.30
2023-02-21T23:51:45.320Z,8.43
2023-02-21T23:54:14.952Z,8.33
2023-02-21T23:56:46.899Z,8.55
2023-02-21T23:59:16.570Z,8.63
